sensor_id;sensor_type;location;lat;lon;timestamp;temperature;humidity
58582;DHT22;44361;51.476;5.700;2023-10-31T00:01:28;10.50;99.90
58582;DHT22;44361;51.476;5.700;2023-10-31T00:03:54;10.50;99.90
58582;DHT22;44361;51.476;5.700;2023-10-31T00:06:20;10.40;99.90
58582;DHT22;44361;51.476;5.700;2023-10-31T00:08:45;10.40;99.90
58582;DHT22;44361;51.476;5.700;2023-10-31T00:11:11;10.40;99.90
58582;DHT22;44361;51.476;5.700;2023-10-31T00:13:37;10.30;99.90
58582;DHT22;44361;51.476;5.700;2023-10-31T00:16:03;10.30;99.90
58582;DHT22;44361;51.476;5.700;2023-10-31T00:18:28;10.30;99.90
58582;DHT22;44361;51.476;5.700;2023-10-31T00:20:54;10.30;99.90
58582;DHT22;44361;51.476;5.700;2023-10-31T00:23:19;10.40;99.90
58582;DHT22;44361;51.476;5.700;2023-10-31T00:25:45;10.40;99.90
58582;DHT22;44361;51.476;5.700;2023-10-31T00:28:11;10.40;99.90
58582;DHT22;44361;51.476;5.700;2023-10-31T00:30:36;10.40;99.90
58582;DHT22;44361;51.476;5.700;2023-10-31T00:33:02;10.40;99.90
58582;DHT22;44361;51.476;5.700;2023-10-31T00:35:27;10.40;99.90
58582;DHT22;44361;51.476;5.700;2023-10-31T00:37:53;10.40;99.90
58582;DHT22;44361;51.476;5.700;2023-10-31T00:40:18;10.40;99.90
58582;DHT22;44361;51.476;5.700;2023-10-31T00:42:44;10.40;99.90
58582;DHT22;44361;51.476;5.700;2023-10-31T00:45:10;10.40;99.90
58582;DHT22;44361;51.476;5.700;2023-10-31T00:47:35;10.40;99.90
58582;DHT22;44361;51.476;5.700;2023-10-31T00:50:02;10.40;99.90
58582;DHT22;44361;51.476;5.700;2023-10-31T00:52:27;10.40;99.90
58582;DHT22;44361;51.476;5.700;2023-10-31T00:54:53;10.40;99.90
58582;DHT22;44361;51.476;5.700;2023-10-31T00:57:18;10.40;99.90
58582;DHT22;44361;51.476;5.700;2023-10-31T00:59:44;10.50;99.90
58582;DHT22;44361;51.476;5.700;2023-10-31T01:02:09;10.40;99.90
58582;DHT22;44361;51.476;5.700;2023-10-31T01:04:36;10.50;99.90
58582;DHT22;44361;51.476;5.700;2023-10-31T01:07:02;10.40;99.90
58582;DHT22;44361;51.476;5.700;2023-10-31T01:09:28;10.50;99.90
58582;DHT22;44361;51.476;5.700;2023-10-31T01:11:53;10.50;99.90
58582;DHT22;44361;51.476;5.700;2023-10-31T01:14:19;10.50;99.90
58582;DHT22;44361;51.476;5.700;2023-10-31T01:16:45;10.50;99.90
58582;DHT22;44361;51.476;5.700;2023-10-31T01:19:11;10.50;99.90
58582;DHT22;44361;51.476;5.700;2023-10-31T01:21:36;10.50;99.90
58582;DHT22;44361;51.476;5.700;2023-10-31T01:24:02;10.50;99.90
58582;DHT22;44361;51.476;5.700;2023-10-31T01:26:28;10.50;99.90
58582;DHT22;44361;51.476;5.700;2023-10-31T01:28:54;10.50;99.90
58582;DHT22;44361;51.476;5.700;2023-10-31T01:31:19;10.50;99.90
58582;DHT22;44361;51.476;5.700;2023-10-31T01:33:45;10.50;99.90
58582;DHT22;44361;51.476;5.700;2023-10-31T01:36:11;10.50;99.90
58582;DHT22;44361;51.476;5.700;2023-10-31T01:38:38;10.50;99.90
58582;DHT22;44361;51.476;5.700;2023-10-31T01:41:04;10.60;99.90
58582;DHT22;44361;51.476;5.700;2023-10-31T01:43:36;10.50;99.90
58582;DHT22;44361;51.476;5.700;2023-10-31T01:46:03;10.50;99.90
58582;DHT22;44361;51.476;5.700;2023-10-31T01:48:32;10.60;99.90
58582;DHT22;44361;51.476;5.700;2023-10-31T01:50:59;10.60;99.90
58582;DHT22;44361;51.476;5.700;2023-10-31T01:53:26;10.60;99.90
58582;DHT22;44361;51.476;5.700;2023-10-31T01:55:55;10.60;99.90
58582;DHT22;44361;51.476;5.700;2023-10-31T01:58:25;10.60;99.90
58582;DHT22;44361;51.476;5.700;2023-10-31T02:00:54;10.60;99.90
58582;DHT22;44361;51.476;5.700;2023-10-31T02:03:20;10.60;99.90
58582;DHT22;44361;51.476;5.700;2023-10-31T02:05:46;10.60;99.90
58582;DHT22;44361;51.476;5.700;2023-10-31T02:08:12;10.60;99.90
58582;DHT22;44361;51.476;5.700;2023-10-31T02:10:37;10.60;99.90
58582;DHT22;44361;51.476;5.700;2023-10-31T02:13:13;10.60;99.90
58582;DHT22;44361;51.476;5.700;2023-10-31T02:15:39;10.60;99.90
58582;DHT22;44361;51.476;5.700;2023-10-31T02:18:05;10.60;99.90
58582;DHT22;44361;51.476;5.700;2023-10-31T02:20:31;10.60;99.90
58582;DHT22;44361;51.476;5.700;2023-10-31T02:22:56;10.60;99.90
58582;DHT22;44361;51.476;5.700;2023-10-31T02:25:22;10.60;99.90
58582;DHT22;44361;51.476;5.700;2023-10-31T02:27:47;10.60;99.90
58582;DHT22;44361;51.476;5.700;2023-10-31T02:30:13;10.60;99.90
58582;DHT22;44361;51.476;5.700;2023-10-31T02:32:40;10.60;99.90
58582;DHT22;44361;51.476;5.700;2023-10-31T02:35:06;10.50;99.90
58582;DHT22;44361;51.476;5.700;2023-10-31T02:37:32;10.50;99.90
58582;DHT22;44361;51.476;5.700;2023-10-31T02:39:57;10.50;99.90
58582;DHT22;44361;51.476;5.700;2023-10-31T02:42:24;10.60;99.90
58582;DHT22;44361;51.476;5.700;2023-10-31T02:44:49;10.60;99.90
58582;DHT22;44361;51.476;5.700;2023-10-31T02:47:15;10.60;99.90
58582;DHT22;44361;51.476;5.700;2023-10-31T02:49:41;10.60;99.90
58582;DHT22;44361;51.476;5.700;2023-10-31T02:52:06;10.60;99.90
58582;DHT22;44361;51.476;5.700;2023-10-31T02:54:32;10.70;99.90
58582;DHT22;44361;51.476;5.700;2023-10-31T02:56:58;10.70;99.90
58582;DHT22;44361;51.476;5.700;2023-10-31T02:59:24;10.70;99.90
58582;DHT22;44361;51.476;5.700;2023-10-31T03:01:49;10.70;99.90
58582;DHT22;44361;51.476;5.700;2023-10-31T03:04:15;10.70;99.90
58582;DHT22;44361;51.476;5.700;2023-10-31T03:06:41;10.70;99.90
58582;DHT22;44361;51.476;5.700;2023-10-31T03:09:07;10.70;99.90
58582;DHT22;44361;51.476;5.700;2023-10-31T03:11:33;10.70;99.90
58582;DHT22;44361;51.476;5.700;2023-10-31T03:13:59;10.70;99.90
58582;DHT22;44361;51.476;5.700;2023-10-31T03:16:24;10.70;99.90
58582;DHT22;44361;51.476;5.700;2023-10-31T03:18:50;10.70;99.90
58582;DHT22;44361;51.476;5.700;2023-10-31T03:21:17;10.70;99.90
58582;DHT22;44361;51.476;5.700;2023-10-31T03:23:52;10.60;99.90
58582;DHT22;44361;51.476;5.700;2023-10-31T03:26:21;10.70;99.90
58582;DHT22;44361;51.476;5.700;2023-10-31T03:28:47;10.70;99.90
58582;DHT22;44361;51.476;5.700;2023-10-31T03:31:13;10.70;99.90
58582;DHT22;44361;51.476;5.700;2023-10-31T03:33:39;10.70;99.90
58582;DHT22;44361;51.476;5.700;2023-10-31T03:36:05;10.70;99.90
58582;DHT22;44361;51.476;5.700;2023-10-31T03:38:31;10.70;99.90
58582;DHT22;44361;51.476;5.700;2023-10-31T03:40:57;10.70;99.90
58582;DHT22;44361;51.476;5.700;2023-10-31T03:43:22;10.80;99.90
58582;DHT22;44361;51.476;5.700;2023-10-31T03:45:48;10.70;99.90
58582;DHT22;44361;51.476;5.700;2023-10-31T03:48:15;10.80;99.90
58582;DHT22;44361;51.476;5.700;2023-10-31T03:50:41;10.80;99.90
58582;DHT22;44361;51.476;5.700;2023-10-31T03:53:07;10.70;99.90
58582;DHT22;44361;51.476;5.700;2023-10-31T03:55:32;10.70;99.90
58582;DHT22;44361;51.476;5.700;2023-10-31T03:57:58;10.80;99.90
58582;DHT22;44361;51.476;5.700;2023-10-31T04:00:24;10.80;99.90
58582;DHT22;44361;51.476;5.700;2023-10-31T04:02:49;10.70;99.90
58582;DHT22;44361;51.476;5.700;2023-10-31T04:05:15;10.70;99.90
58582;DHT22;44361;51.476;5.700;2023-10-31T04:07:41;10.70;99.90
58582;DHT22;44361;51.476;5.700;2023-10-31T04:10:07;10.70;99.90
58582;DHT22;44361;51.476;5.700;2023-10-31T04:12:33;10.70;99.90
58582;DHT22;44361;51.476;5.700;2023-10-31T04:14:59;10.70;99.90
58582;DHT22;44361;51.476;5.700;2023-10-31T04:17:24;10.70;99.90
58582;DHT22;44361;51.476;5.700;2023-10-31T04:19:50;10.70;99.90
58582;DHT22;44361;51.476;5.700;2023-10-31T04:22:16;10.80;99.90
58582;DHT22;44361;51.476;5.700;2023-10-31T04:24:41;10.80;99.90
58582;DHT22;44361;51.476;5.700;2023-10-31T04:27:07;10.70;99.90
58582;DHT22;44361;51.476;5.700;2023-10-31T04:29:33;10.80;99.90
58582;DHT22;44361;51.476;5.700;2023-10-31T04:31:58;10.80;99.90
58582;DHT22;44361;51.476;5.700;2023-10-31T04:34:24;10.80;99.90
58582;DHT22;44361;51.476;5.700;2023-10-31T04:36:49;10.80;99.90
58582;DHT22;44361;51.476;5.700;2023-10-31T04:39:15;10.80;99.90
58582;DHT22;44361;51.476;5.700;2023-10-31T04:41:41;10.80;99.90
58582;DHT22;44361;51.476;5.700;2023-10-31T04:44:06;10.70;99.90
58582;DHT22;44361;51.476;5.700;2023-10-31T04:46:32;10.80;99.90
58582;DHT22;44361;51.476;5.700;2023-10-31T04:48:57;10.80;99.90
58582;DHT22;44361;51.476;5.700;2023-10-31T04:51:23;10.80;99.90
58582;DHT22;44361;51.476;5.700;2023-10-31T04:53:48;10.70;99.90
58582;DHT22;44361;51.476;5.700;2023-10-31T04:56:15;10.70;99.90
58582;DHT22;44361;51.476;5.700;2023-10-31T04:58:41;10.70;99.90
58582;DHT22;44361;51.476;5.700;2023-10-31T05:01:08;10.70;99.90
58582;DHT22;44361;51.476;5.700;2023-10-31T05:03:34;10.70;99.90
58582;DHT22;44361;51.476;5.700;2023-10-31T05:06:00;10.70;99.90
58582;DHT22;44361;51.476;5.700;2023-10-31T05:08:25;10.70;99.90
58582;DHT22;44361;51.476;5.700;2023-10-31T05:10:51;10.70;99.90
58582;DHT22;44361;51.476;5.700;2023-10-31T05:13:16;10.60;99.90
58582;DHT22;44361;51.476;5.700;2023-10-31T05:15:42;10.60;99.90
58582;DHT22;44361;51.476;5.700;2023-10-31T05:18:07;10.60;99.90
58582;DHT22;44361;51.476;5.700;2023-10-31T05:20:33;10.50;99.90
58582;DHT22;44361;51.476;5.700;2023-10-31T05:22:59;10.50;99.90
58582;DHT22;44361;51.476;5.700;2023-10-31T05:25:25;10.50;99.90
58582;DHT22;44361;51.476;5.700;2023-10-31T05:27:51;10.50;99.90
58582;DHT22;44361;51.476;5.700;2023-10-31T05:30:17;10.30;99.90
58582;DHT22;44361;51.476;5.700;2023-10-31T05:32:43;10.30;99.90
58582;DHT22;44361;51.476;5.700;2023-10-31T05:35:10;10.30;99.90
58582;DHT22;44361;51.476;5.700;2023-10-31T05:37:36;10.30;99.90
58582;DHT22;44361;51.476;5.700;2023-10-31T05:40:02;10.30;99.90
58582;DHT22;44361;51.476;5.700;2023-10-31T05:42:27;10.30;99.90
58582;DHT22;44361;51.476;5.700;2023-10-31T05:44:54;10.30;99.90
58582;DHT22;44361;51.476;5.700;2023-10-31T05:47:20;10.30;99.90
58582;DHT22;44361;51.476;5.700;2023-10-31T05:49:46;10.30;99.90
58582;DHT22;44361;51.476;5.700;2023-10-31T05:52:12;10.30;99.90
58582;DHT22;44361;51.476;5.700;2023-10-31T05:54:37;10.30;99.90
58582;DHT22;44361;51.476;5.700;2023-10-31T05:57:03;10.30;99.90
58582;DHT22;44361;51.476;5.700;2023-10-31T05:59:28;10.30;99.90
58582;DHT22;44361;51.476;5.700;2023-10-31T06:01:54;10.30;99.90
58582;DHT22;44361;51.476;5.700;2023-10-31T06:04:20;10.30;99.90
58582;DHT22;44361;51.476;5.700;2023-10-31T06:06:45;10.30;99.90
58582;DHT22;44361;51.476;5.700;2023-10-31T06:09:11;10.30;99.90
58582;DHT22;44361;51.476;5.700;2023-10-31T06:11:39;10.30;99.90
58582;DHT22;44361;51.476;5.700;2023-10-31T06:14:04;10.30;99.90
58582;DHT22;44361;51.476;5.700;2023-10-31T06:16:30;10.30;99.90
58582;DHT22;44361;51.476;5.700;2023-10-31T06:18:56;10.20;99.90
58582;DHT22;44361;51.476;5.700;2023-10-31T06:21:21;10.20;99.90
58582;DHT22;44361;51.476;5.700;2023-10-31T06:23:47;10.20;99.90
58582;DHT22;44361;51.476;5.700;2023-10-31T06:26:12;10.20;99.90
58582;DHT22;44361;51.476;5.700;2023-10-31T06:28:38;10.20;99.90
58582;DHT22;44361;51.476;5.700;2023-10-31T06:31:05;10.10;99.90
58582;DHT22;44361;51.476;5.700;2023-10-31T06:33:31;10.00;99.90
58582;DHT22;44361;51.476;5.700;2023-10-31T06:35:56;10.00;99.90
58582;DHT22;44361;51.476;5.700;2023-10-31T06:38:22;10.00;99.90
58582;DHT22;44361;51.476;5.700;2023-10-31T06:40:47;9.90;99.90
58582;DHT22;44361;51.476;5.700;2023-10-31T06:43:13;10.00;99.90
58582;DHT22;44361;51.476;5.700;2023-10-31T06:45:38;9.90;99.90
58582;DHT22;44361;51.476;5.700;2023-10-31T06:48:04;10.00;99.90
58582;DHT22;44361;51.476;5.700;2023-10-31T06:50:32;10.00;99.90
58582;DHT22;44361;51.476;5.700;2023-10-31T06:52:58;10.10;99.90
58582;DHT22;44361;51.476;5.700;2023-10-31T06:55:23;10.10;99.90
58582;DHT22;44361;51.476;5.700;2023-10-31T06:57:49;10.10;99.90
58582;DHT22;44361;51.476;5.700;2023-10-31T07:00:15;10.20;99.90
58582;DHT22;44361;51.476;5.700;2023-10-31T07:02:41;10.20;99.90
58582;DHT22;44361;51.476;5.700;2023-10-31T07:05:06;10.30;99.90
58582;DHT22;44361;51.476;5.700;2023-10-31T07:07:32;10.30;99.90
58582;DHT22;44361;51.476;5.700;2023-10-31T07:09:58;10.30;99.90
58582;DHT22;44361;51.476;5.700;2023-10-31T07:12:24;10.30;99.90
58582;DHT22;44361;51.476;5.700;2023-10-31T07:14:50;10.30;99.90
58582;DHT22;44361;51.476;5.700;2023-10-31T07:17:15;10.40;99.90
58582;DHT22;44361;51.476;5.700;2023-10-31T07:19:41;10.40;99.90
58582;DHT22;44361;51.476;5.700;2023-10-31T07:22:07;10.40;99.90
58582;DHT22;44361;51.476;5.700;2023-10-31T07:24:32;10.40;99.90
58582;DHT22;44361;51.476;5.700;2023-10-31T07:26:58;10.40;99.90
58582;DHT22;44361;51.476;5.700;2023-10-31T07:29:23;10.40;99.90
58582;DHT22;44361;51.476;5.700;2023-10-31T07:31:49;10.40;99.90
58582;DHT22;44361;51.476;5.700;2023-10-31T07:34:15;10.40;99.90
58582;DHT22;44361;51.476;5.700;2023-10-31T07:36:41;10.40;99.90
58582;DHT22;44361;51.476;5.700;2023-10-31T07:39:06;10.40;99.90
58582;DHT22;44361;51.476;5.700;2023-10-31T07:41:32;10.40;99.90
58582;DHT22;44361;51.476;5.700;2023-10-31T07:43:58;10.50;99.90
58582;DHT22;44361;51.476;5.700;2023-10-31T07:46:24;10.50;99.90
58582;DHT22;44361;51.476;5.700;2023-10-31T07:48:50;10.50;99.90
58582;DHT22;44361;51.476;5.700;2023-10-31T07:51:15;10.50;99.90
58582;DHT22;44361;51.476;5.700;2023-10-31T07:53:41;10.50;99.90
58582;DHT22;44361;51.476;5.700;2023-10-31T07:56:20;10.50;99.90
58582;DHT22;44361;51.476;5.700;2023-10-31T07:58:49;10.60;99.90
58582;DHT22;44361;51.476;5.700;2023-10-31T08:01:16;10.50;99.90
58582;DHT22;44361;51.476;5.700;2023-10-31T08:03:42;10.50;99.90
58582;DHT22;44361;51.476;5.700;2023-10-31T08:06:07;10.50;99.90
58582;DHT22;44361;51.476;5.700;2023-10-31T08:08:33;10.50;99.90
58582;DHT22;44361;51.476;5.700;2023-10-31T08:10:59;10.50;99.90
58582;DHT22;44361;51.476;5.700;2023-10-31T08:13:25;10.50;99.90
58582;DHT22;44361;51.476;5.700;2023-10-31T08:15:51;10.60;99.90
58582;DHT22;44361;51.476;5.700;2023-10-31T08:18:16;10.70;99.90
58582;DHT22;44361;51.476;5.700;2023-10-31T08:20:42;10.80;99.90
58582;DHT22;44361;51.476;5.700;2023-10-31T08:23:08;10.80;99.90
58582;DHT22;44361;51.476;5.700;2023-10-31T08:25:34;10.90;99.90
58582;DHT22;44361;51.476;5.700;2023-10-31T08:28:00;10.90;99.90
58582;DHT22;44361;51.476;5.700;2023-10-31T08:30:25;11.00;99.90
58582;DHT22;44361;51.476;5.700;2023-10-31T08:32:51;11.00;99.90
58582;DHT22;44361;51.476;5.700;2023-10-31T08:35:16;11.10;99.90
58582;DHT22;44361;51.476;5.700;2023-10-31T08:37:42;11.10;99.90
58582;DHT22;44361;51.476;5.700;2023-10-31T08:40:08;11.20;99.90
58582;DHT22;44361;51.476;5.700;2023-10-31T08:42:33;11.10;99.90
58582;DHT22;44361;51.476;5.700;2023-10-31T08:44:59;11.40;99.90
58582;DHT22;44361;51.476;5.700;2023-10-31T08:47:25;11.50;99.90
58582;DHT22;44361;51.476;5.700;2023-10-31T08:49:50;11.40;99.90
58582;DHT22;44361;51.476;5.700;2023-10-31T08:52:16;11.30;99.90
58582;DHT22;44361;51.476;5.700;2023-10-31T08:54:43;11.30;99.90
58582;DHT22;44361;51.476;5.700;2023-10-31T08:57:08;11.40;99.90
58582;DHT22;44361;51.476;5.700;2023-10-31T08:59:34;11.40;99.90
58582;DHT22;44361;51.476;5.700;2023-10-31T09:02:00;11.40;99.90
58582;DHT22;44361;51.476;5.700;2023-10-31T09:04:26;11.40;99.90
58582;DHT22;44361;51.476;5.700;2023-10-31T09:06:52;11.30;99.90
58582;DHT22;44361;51.476;5.700;2023-10-31T09:09:17;11.60;99.90
58582;DHT22;44361;51.476;5.700;2023-10-31T09:11:43;11.60;99.90
58582;DHT22;44361;51.476;5.700;2023-10-31T09:14:09;11.60;99.90
58582;DHT22;44361;51.476;5.700;2023-10-31T09:16:35;11.60;99.90
58582;DHT22;44361;51.476;5.700;2023-10-31T09:19:00;11.60;99.90
58582;DHT22;44361;51.476;5.700;2023-10-31T09:21:26;11.60;99.90
58582;DHT22;44361;51.476;5.700;2023-10-31T09:23:51;11.60;99.90
58582;DHT22;44361;51.476;5.700;2023-10-31T09:26:17;11.70;99.90
58582;DHT22;44361;51.476;5.700;2023-10-31T09:28:43;11.90;99.90
58582;DHT22;44361;51.476;5.700;2023-10-31T09:31:18;12.10;99.90
58582;DHT22;44361;51.476;5.700;2023-10-31T09:33:47;12.10;99.90
58582;DHT22;44361;51.476;5.700;2023-10-31T09:36:13;12.10;99.90
58582;DHT22;44361;51.476;5.700;2023-10-31T09:38:39;12.40;99.90
58582;DHT22;44361;51.476;5.700;2023-10-31T09:41:05;12.50;99.90
58582;DHT22;44361;51.476;5.700;2023-10-31T09:43:31;12.50;99.90
58582;DHT22;44361;51.476;5.700;2023-10-31T09:45:57;12.50;99.90
58582;DHT22;44361;51.476;5.700;2023-10-31T09:48:23;12.80;99.90
58582;DHT22;44361;51.476;5.700;2023-10-31T09:50:49;12.80;99.90
58582;DHT22;44361;51.476;5.700;2023-10-31T09:53:15;12.60;99.90
58582;DHT22;44361;51.476;5.700;2023-10-31T09:55:46;12.50;99.90
58582;DHT22;44361;51.476;5.700;2023-10-31T09:58:12;12.40;99.90
58582;DHT22;44361;51.476;5.700;2023-10-31T10:00:38;12.30;99.90
58582;DHT22;44361;51.476;5.700;2023-10-31T10:03:07;12.60;99.90
58582;DHT22;44361;51.476;5.700;2023-10-31T10:05:35;12.60;99.90
58582;DHT22;44361;51.476;5.700;2023-10-31T10:08:01;12.70;99.90
58582;DHT22;44361;51.476;5.700;2023-10-31T10:10:27;12.70;99.90
58582;DHT22;44361;51.476;5.700;2023-10-31T10:12:55;12.70;99.90
58582;DHT22;44361;51.476;5.700;2023-10-31T10:15:21;12.70;99.90
58582;DHT22;44361;51.476;5.700;2023-10-31T10:17:51;12.70;99.90
58582;DHT22;44361;51.476;5.700;2023-10-31T10:20:17;12.60;99.90
58582;DHT22;44361;51.476;5.700;2023-10-31T10:22:44;12.50;99.90
58582;DHT22;44361;51.476;5.700;2023-10-31T10:25:13;12.50;99.90
58582;DHT22;44361;51.476;5.700;2023-10-31T10:27:41;12.60;99.90
58582;DHT22;44361;51.476;5.700;2023-10-31T10:30:08;12.60;99.90
58582;DHT22;44361;51.476;5.700;2023-10-31T10:32:34;12.50;99.90
58582;DHT22;44361;51.476;5.700;2023-10-31T10:34:59;12.40;99.90
58582;DHT22;44361;51.476;5.700;2023-10-31T10:37:26;12.30;99.90
58582;DHT22;44361;51.476;5.700;2023-10-31T10:39:53;12.20;99.90
58582;DHT22;44361;51.476;5.700;2023-10-31T10:42:32;12.40;99.90
58582;DHT22;44361;51.476;5.700;2023-10-31T10:45:03;12.30;99.90
58582;DHT22;44361;51.476;5.700;2023-10-31T10:47:30;12.20;99.90
58582;DHT22;44361;51.476;5.700;2023-10-31T10:49:59;12.30;99.90
58582;DHT22;44361;51.476;5.700;2023-10-31T10:52:35;12.40;99.90
58582;DHT22;44361;51.476;5.700;2023-10-31T11:00:20;12.90;99.90
58582;DHT22;44361;51.476;5.700;2023-10-31T11:02:51;12.80;99.90
58582;DHT22;44361;51.476;5.700;2023-10-31T11:05:18;12.80;99.90
58582;DHT22;44361;51.476;5.700;2023-10-31T11:07:44;12.80;99.90
58582;DHT22;44361;51.476;5.700;2023-10-31T11:10:11;12.60;99.90
58582;DHT22;44361;51.476;5.700;2023-10-31T11:12:37;12.50;99.90
58582;DHT22;44361;51.476;5.700;2023-10-31T11:15:05;12.40;99.90
58582;DHT22;44361;51.476;5.700;2023-10-31T11:17:34;12.30;99.90
58582;DHT22;44361;51.476;5.700;2023-10-31T11:20:00;12.30;99.90
58582;DHT22;44361;51.476;5.700;2023-10-31T11:22:36;12.30;99.90
58582;DHT22;44361;51.476;5.700;2023-10-31T11:25:02;12.40;99.90
58582;DHT22;44361;51.476;5.700;2023-10-31T11:27:27;12.50;99.90
58582;DHT22;44361;51.476;5.700;2023-10-31T11:29:54;12.60;99.90
58582;DHT22;44361;51.476;5.700;2023-10-31T11:32:22;12.70;99.90
58582;DHT22;44361;51.476;5.700;2023-10-31T11:34:47;12.80;99.90
58582;DHT22;44361;51.476;5.700;2023-10-31T11:37:26;12.80;99.90
58582;DHT22;44361;51.476;5.700;2023-10-31T11:42:50;12.80;99.90
58582;DHT22;44361;51.476;5.700;2023-10-31T11:47:55;12.80;99.90
58582;DHT22;44361;51.476;5.700;2023-10-31T11:50:21;12.80;99.90
58582;DHT22;44361;51.476;5.700;2023-10-31T11:52:58;12.70;99.90
58582;DHT22;44361;51.476;5.700;2023-10-31T11:55:24;12.80;99.90
58582;DHT22;44361;51.476;5.700;2023-10-31T11:57:50;12.80;99.90
58582;DHT22;44361;51.476;5.700;2023-10-31T12:00:23;12.60;99.90
58582;DHT22;44361;51.476;5.700;2023-10-31T12:03:01;12.60;99.90
58582;DHT22;44361;51.476;5.700;2023-10-31T12:05:28;12.60;99.90
58582;DHT22;44361;51.476;5.700;2023-10-31T12:07:55;12.60;99.90
58582;DHT22;44361;51.476;5.700;2023-10-31T12:10:28;12.70;99.90
58582;DHT22;44361;51.476;5.700;2023-10-31T12:12:56;12.80;99.90
58582;DHT22;44361;51.476;5.700;2023-10-31T12:15:22;12.80;99.90
58582;DHT22;44361;51.476;5.700;2023-10-31T12:17:48;13.00;99.90
58582;DHT22;44361;51.476;5.700;2023-10-31T12:20:14;13.10;99.90
58582;DHT22;44361;51.476;5.700;2023-10-31T12:22:41;13.00;99.90
58582;DHT22;44361;51.476;5.700;2023-10-31T12:25:09;13.10;99.90
58582;DHT22;44361;51.476;5.700;2023-10-31T12:27:48;13.20;99.90
58582;DHT22;44361;51.476;5.700;2023-10-31T12:30:16;13.40;99.90
58582;DHT22;44361;51.476;5.700;2023-10-31T12:32:43;13.40;99.90
58582;DHT22;44361;51.476;5.700;2023-10-31T12:35:14;13.30;99.90
58582;DHT22;44361;51.476;5.700;2023-10-31T12:37:44;13.20;99.90
58582;DHT22;44361;51.476;5.700;2023-10-31T12:40:11;13.20;99.90
58582;DHT22;44361;51.476;5.700;2023-10-31T12:42:37;13.20;99.90
58582;DHT22;44361;51.476;5.700;2023-10-31T12:45:04;13.40;99.90
58582;DHT22;44361;51.476;5.700;2023-10-31T12:47:30;13.70;99.90
58582;DHT22;44361;51.476;5.700;2023-10-31T12:50:15;13.90;99.90
58582;DHT22;44361;51.476;5.700;2023-10-31T12:52:52;14.20;99.90
58582;DHT22;44361;51.476;5.700;2023-10-31T12:55:20;14.30;99.90
58582;DHT22;44361;51.476;5.700;2023-10-31T12:57:46;14.40;99.90
58582;DHT22;44361;51.476;5.700;2023-10-31T13:00:16;14.10;99.90
58582;DHT22;44361;51.476;5.700;2023-10-31T13:02:50;14.10;99.90
58582;DHT22;44361;51.476;5.700;2023-10-31T13:05:15;14.20;99.90
58582;DHT22;44361;51.476;5.700;2023-10-31T13:07:51;14.40;99.90
58582;DHT22;44361;51.476;5.700;2023-10-31T13:10:19;14.60;99.90
58582;DHT22;44361;51.476;5.700;2023-10-31T13:12:49;14.50;99.90
58582;DHT22;44361;51.476;5.700;2023-10-31T13:15:18;14.30;99.90
58582;DHT22;44361;51.476;5.700;2023-10-31T13:17:45;14.10;99.90
58582;DHT22;44361;51.476;5.700;2023-10-31T13:20:12;13.90;99.90
58582;DHT22;44361;51.476;5.700;2023-10-31T13:22:38;13.90;99.90
58582;DHT22;44361;51.476;5.700;2023-10-31T13:25:05;13.90;99.90
58582;DHT22;44361;51.476;5.700;2023-10-31T13:27:36;13.90;99.90
58582;DHT22;44361;51.476;5.700;2023-10-31T13:30:03;13.80;99.90
58582;DHT22;44361;51.476;5.700;2023-10-31T13:32:28;13.70;99.90
58582;DHT22;44361;51.476;5.700;2023-10-31T13:34:54;13.50;99.90
58582;DHT22;44361;51.476;5.700;2023-10-31T13:37:20;13.40;99.90
58582;DHT22;44361;51.476;5.700;2023-10-31T13:39:46;13.30;99.90
58582;DHT22;44361;51.476;5.700;2023-10-31T13:42:11;13.30;99.90
58582;DHT22;44361;51.476;5.700;2023-10-31T13:44:37;13.30;99.90
58582;DHT22;44361;51.476;5.700;2023-10-31T13:47:03;13.40;99.90
58582;DHT22;44361;51.476;5.700;2023-10-31T13:49:29;13.40;99.90
58582;DHT22;44361;51.476;5.700;2023-10-31T13:51:54;13.50;99.90
58582;DHT22;44361;51.476;5.700;2023-10-31T13:54:20;13.50;99.90
58582;DHT22;44361;51.476;5.700;2023-10-31T13:56:47;13.40;99.90
58582;DHT22;44361;51.476;5.700;2023-10-31T13:59:12;13.30;99.90
58582;DHT22;44361;51.476;5.700;2023-10-31T14:01:38;13.30;99.90
58582;DHT22;44361;51.476;5.700;2023-10-31T14:04:06;13.20;99.90
58582;DHT22;44361;51.476;5.700;2023-10-31T14:06:31;13.30;99.90
58582;DHT22;44361;51.476;5.700;2023-10-31T14:08:58;13.40;99.90
58582;DHT22;44361;51.476;5.700;2023-10-31T14:11:24;13.30;99.90
58582;DHT22;44361;51.476;5.700;2023-10-31T14:13:49;13.40;99.90
58582;DHT22;44361;51.476;5.700;2023-10-31T14:16:16;13.50;99.90
58582;DHT22;44361;51.476;5.700;2023-10-31T14:18:42;13.40;99.90
58582;DHT22;44361;51.476;5.700;2023-10-31T14:21:08;13.20;99.90
58582;DHT22;44361;51.476;5.700;2023-10-31T14:23:34;13.10;99.90
58582;DHT22;44361;51.476;5.700;2023-10-31T14:26:00;13.00;99.90
58582;DHT22;44361;51.476;5.700;2023-10-31T14:28:25;13.00;99.90
58582;DHT22;44361;51.476;5.700;2023-10-31T14:30:51;13.00;99.90
58582;DHT22;44361;51.476;5.700;2023-10-31T14:33:18;13.00;99.90
58582;DHT22;44361;51.476;5.700;2023-10-31T14:35:43;13.00;99.90
58582;DHT22;44361;51.476;5.700;2023-10-31T14:38:09;12.90;99.90
58582;DHT22;44361;51.476;5.700;2023-10-31T14:40:34;12.90;99.90
58582;DHT22;44361;51.476;5.700;2023-10-31T14:43:00;12.90;99.90
58582;DHT22;44361;51.476;5.700;2023-10-31T14:45:26;12.80;99.90
58582;DHT22;44361;51.476;5.700;2023-10-31T14:47:52;12.80;99.90
58582;DHT22;44361;51.476;5.700;2023-10-31T14:50:18;12.70;99.90
58582;DHT22;44361;51.476;5.700;2023-10-31T14:52:46;12.60;99.90
58582;DHT22;44361;51.476;5.700;2023-10-31T14:55:13;12.50;99.90
58582;DHT22;44361;51.476;5.700;2023-10-31T14:57:38;12.30;99.90
58582;DHT22;44361;51.476;5.700;2023-10-31T15:00:05;12.10;99.90
58582;DHT22;44361;51.476;5.700;2023-10-31T15:02:32;12.00;99.90
58582;DHT22;44361;51.476;5.700;2023-10-31T15:05:00;11.80;99.90
58582;DHT22;44361;51.476;5.700;2023-10-31T15:07:25;11.70;99.90
58582;DHT22;44361;51.476;5.700;2023-10-31T15:09:51;11.60;99.90
58582;DHT22;44361;51.476;5.700;2023-10-31T15:12:16;11.60;99.90
58582;DHT22;44361;51.476;5.700;2023-10-31T15:14:42;11.60;99.90
58582;DHT22;44361;51.476;5.700;2023-10-31T15:17:08;11.50;99.90
58582;DHT22;44361;51.476;5.700;2023-10-31T15:19:34;11.50;99.90
58582;DHT22;44361;51.476;5.700;2023-10-31T15:21:59;11.50;99.90
58582;DHT22;44361;51.476;5.700;2023-10-31T15:24:25;11.50;99.90
58582;DHT22;44361;51.476;5.700;2023-10-31T15:26:50;11.50;99.90
58582;DHT22;44361;51.476;5.700;2023-10-31T15:29:16;11.50;99.90
58582;DHT22;44361;51.476;5.700;2023-10-31T15:31:45;11.70;99.90
58582;DHT22;44361;51.476;5.700;2023-10-31T15:34:12;11.70;99.90
58582;DHT22;44361;51.476;5.700;2023-10-31T15:36:38;11.70;99.90